Terminal Aerodrome Forecast
Issued by NWS St Louis, MO

Home | Current Version | Previous Version | Graphics & Text | Print | Product List | Glossary On
Versions: 1 2 3 4 5 6 7 8 9 10 11 12 13 14 15 16 17 18 19 20 21 22 23 24 25 26 27 28 29 30 31 32 33 34 35
000
FTUS43 KLSX 040700 AAA
TAFSTL
TAF AMD
KSTL 040757Z 0408/0512 35008KT P6SM OVC035
      TEMPO 0408/0411 -PLSN OVC030
     FM041500 35012G18KT 3SM -SN OVC035
     FM041900 35012G18KT P6SM OVC090
     FM050000 35009KT P6SM BKN150=

USA.gov is the U.S. government's official web portal to all federal, state and local government web resources and services.